sensor_id;sensor_type;location;lat;lon;timestamp;P1;durP1;ratioP1;P2;durP2;ratioP2
44750;SDS011;30477;48.224;11.470;2023-01-08T00:04:06;28.33;;;17.37;;
44750;SDS011;30477;48.224;11.470;2023-01-08T00:06:32;24.40;;;16.83;;
44750;SDS011;30477;48.224;11.470;2023-01-08T00:08:57;22.27;;;15.97;;
44750;SDS011;30477;48.224;11.470;2023-01-08T00:11:23;22.93;;;16.33;;
44750;SDS011;30477;48.224;11.470;2023-01-08T00:13:48;25.10;;;14.73;;
44750;SDS011;30477;48.224;11.470;2023-01-08T00:16:14;20.23;;;14.73;;
44750;SDS011;30477;48.224;11.470;2023-01-08T00:18:42;17.58;;;12.32;;
44750;SDS011;30477;48.224;11.470;2023-01-08T00:23:34;18.33;;;12.10;;
44750;SDS011;30477;48.224;11.470;2023-01-08T00:26:00;19.00;;;12.32;;
44750;SDS011;30477;48.224;11.470;2023-01-08T00:28:27;16.17;;;12.45;;
44750;SDS011;30477;48.224;11.470;2023-01-08T00:30:52;18.38;;;12.88;;
44750;SDS011;30477;48.224;11.470;2023-01-08T00:33:17;20.13;;;13.63;;
44750;SDS011;30477;48.224;11.470;2023-01-08T00:35:43;17.30;;;12.63;;
44750;SDS011;30477;48.224;11.470;2023-01-08T00:38:08;19.93;;;13.20;;
44750;SDS011;30477;48.224;11.470;2023-01-08T00:40:36;16.40;;;12.25;;
44750;SDS011;30477;48.224;11.470;2023-01-08T00:43:02;16.67;;;10.80;;
44750;SDS011;30477;48.224;11.470;2023-01-08T00:45:28;15.27;;;11.32;;
44750;SDS011;30477;48.224;11.470;2023-01-08T00:47:54;17.50;;;10.68;;
44750;SDS011;30477;48.224;11.470;2023-01-08T00:50:19;16.17;;;11.10;;
44750;SDS011;30477;48.224;11.470;2023-01-08T00:52:45;16.63;;;10.57;;
44750;SDS011;30477;48.224;11.470;2023-01-08T00:55:10;15.00;;;10.50;;
44750;SDS011;30477;48.224;11.470;2023-01-08T00:57:36;16.33;;;12.07;;
44750;SDS011;30477;48.224;11.470;2023-01-08T01:00:06;17.10;;;12.23;;
44750;SDS011;30477;48.224;11.470;2023-01-08T01:02:36;17.17;;;12.00;;
44750;SDS011;30477;48.224;11.470;2023-01-08T01:05:02;17.17;;;12.13;;
44750;SDS011;30477;48.224;11.470;2023-01-08T01:07:29;21.52;;;12.77;;
44750;SDS011;30477;48.224;11.470;2023-01-08T01:09:54;19.50;;;13.43;;
44750;SDS011;30477;48.224;11.470;2023-01-08T01:12:19;19.17;;;12.97;;
44750;SDS011;30477;48.224;11.470;2023-01-08T01:14:45;19.17;;;12.37;;
44750;SDS011;30477;48.224;11.470;2023-01-08T01:17:11;23.53;;;12.73;;
44750;SDS011;30477;48.224;11.470;2023-01-08T01:19:36;18.13;;;13.02;;
44750;SDS011;30477;48.224;11.470;2023-01-08T01:22:02;16.92;;;11.80;;
44750;SDS011;30477;48.224;11.470;2023-01-08T01:24:28;19.97;;;11.93;;
44750;SDS011;30477;48.224;11.470;2023-01-08T01:26:53;18.00;;;11.80;;
44750;SDS011;30477;48.224;11.470;2023-01-08T01:29:20;17.17;;;10.80;;
44750;SDS011;30477;48.224;11.470;2023-01-08T01:31:46;16.63;;;11.25;;
44750;SDS011;30477;48.224;11.470;2023-01-08T01:34:12;17.17;;;10.33;;
44750;SDS011;30477;48.224;11.470;2023-01-08T01:36:37;17.40;;;11.40;;
44750;SDS011;30477;48.224;11.470;2023-01-08T01:39:03;16.43;;;10.93;;
44750;SDS011;30477;48.224;11.470;2023-01-08T01:41:35;14.52;;;10.50;;
44750;SDS011;30477;48.224;11.470;2023-01-08T01:47:11;16.73;;;10.57;;
44750;SDS011;30477;48.224;11.470;2023-01-08T01:50:13;14.18;;;9.82;;
44750;SDS011;30477;48.224;11.470;2023-01-08T01:55:42;17.38;;;10.27;;
44750;SDS011;30477;48.224;11.470;2023-01-08T01:58:27;14.90;;;10.88;;
44750;SDS011;30477;48.224;11.470;2023-01-08T02:00:55;15.32;;;9.88;;
44750;SDS011;30477;48.224;11.470;2023-01-08T02:03:24;13.43;;;9.68;;
44750;SDS011;30477;48.224;11.470;2023-01-08T02:11:39;15.25;;;10.07;;
44750;SDS011;30477;48.224;11.470;2023-01-08T02:14:17;15.13;;;9.82;;
44750;SDS011;30477;48.224;11.470;2023-01-08T02:16:53;15.18;;;9.65;;
44750;SDS011;30477;48.224;11.470;2023-01-08T02:22:14;15.57;;;9.75;;
44750;SDS011;30477;48.224;11.470;2023-01-08T02:27:33;14.43;;;9.77;;
44750;SDS011;30477;48.224;11.470;2023-01-08T02:30:00;13.50;;;9.45;;
44750;SDS011;30477;48.224;11.470;2023-01-08T02:32:27;14.40;;;9.98;;
44750;SDS011;30477;48.224;11.470;2023-01-08T02:34:57;15.30;;;9.68;;
44750;SDS011;30477;48.224;11.470;2023-01-08T02:37:23;15.30;;;10.03;;
44750;SDS011;30477;48.224;11.470;2023-01-08T02:47:52;12.57;;;9.80;;
44750;SDS011;30477;48.224;11.470;2023-01-08T02:50:28;17.95;;;9.82;;
44750;SDS011;30477;48.224;11.470;2023-01-08T02:53:18;15.57;;;9.88;;
44750;SDS011;30477;48.224;11.470;2023-01-08T02:55:51;14.40;;;10.30;;
44750;SDS011;30477;48.224;11.470;2023-01-08T02:58:21;14.27;;;9.68;;
44750;SDS011;30477;48.224;11.470;2023-01-08T03:00:49;15.05;;;9.95;;
44750;SDS011;30477;48.224;11.470;2023-01-08T03:03:21;15.98;;;10.43;;
44750;SDS011;30477;48.224;11.470;2023-01-08T03:05:51;15.40;;;10.48;;
44750;SDS011;30477;48.224;11.470;2023-01-08T03:08:19;19.15;;;10.45;;
44750;SDS011;30477;48.224;11.470;2023-01-08T03:10:48;15.63;;;10.35;;
44750;SDS011;30477;48.224;11.470;2023-01-08T03:16:22;13.45;;;9.23;;
44750;SDS011;30477;48.224;11.470;2023-01-08T03:19:09;12.73;;;9.20;;
44750;SDS011;30477;48.224;11.470;2023-01-08T03:21:39;13.23;;;9.43;;
44750;SDS011;30477;48.224;11.470;2023-01-08T03:24:07;14.55;;;10.27;;
44750;SDS011;30477;48.224;11.470;2023-01-08T03:26:35;14.65;;;9.25;;
44750;SDS011;30477;48.224;11.470;2023-01-08T03:29:03;16.55;;;8.85;;
44750;SDS011;30477;48.224;11.470;2023-01-08T03:31:30;13.18;;;9.30;;
44750;SDS011;30477;48.224;11.470;2023-01-08T03:33:59;16.83;;;9.98;;
44750;SDS011;30477;48.224;11.470;2023-01-08T03:36:26;17.13;;;9.65;;
44750;SDS011;30477;48.224;11.470;2023-01-08T03:41:52;15.20;;;9.77;;
44750;SDS011;30477;48.224;11.470;2023-01-08T03:44:30;14.55;;;9.68;;
44750;SDS011;30477;48.224;11.470;2023-01-08T03:46:56;12.80;;;9.33;;
44750;SDS011;30477;48.224;11.470;2023-01-08T03:51:50;13.10;;;8.82;;
44750;SDS011;30477;48.224;11.470;2023-01-08T03:54:16;14.67;;;9.43;;
44750;SDS011;30477;48.224;11.470;2023-01-08T03:56:44;11.77;;;9.07;;
44750;SDS011;30477;48.224;11.470;2023-01-08T03:59:10;11.35;;;8.48;;
44750;SDS011;30477;48.224;11.470;2023-01-08T04:01:38;13.60;;;7.32;;
44750;SDS011;30477;48.224;11.470;2023-01-08T04:04:04;11.83;;;8.23;;
44750;SDS011;30477;48.224;11.470;2023-01-08T04:06:30;12.40;;;8.50;;
44750;SDS011;30477;48.224;11.470;2023-01-08T04:08:55;12.87;;;8.67;;
44750;SDS011;30477;48.224;11.470;2023-01-08T04:11:20;11.23;;;8.07;;
44750;SDS011;30477;48.224;11.470;2023-01-08T04:13:46;11.83;;;8.40;;
44750;SDS011;30477;48.224;11.470;2023-01-08T04:16:11;12.13;;;8.50;;
44750;SDS011;30477;48.224;11.470;2023-01-08T04:18:36;13.80;;;8.83;;
44750;SDS011;30477;48.224;11.470;2023-01-08T04:21:02;17.67;;;9.27;;
44750;SDS011;30477;48.224;11.470;2023-01-08T04:23:27;14.47;;;9.47;;
44750;SDS011;30477;48.224;11.470;2023-01-08T04:25:53;15.73;;;8.80;;
44750;SDS011;30477;48.224;11.470;2023-01-08T04:28:18;12.30;;;8.60;;
44750;SDS011;30477;48.224;11.470;2023-01-08T04:30:44;12.60;;;8.57;;
44750;SDS011;30477;48.224;11.470;2023-01-08T04:33:09;11.10;;;7.77;;
44750;SDS011;30477;48.224;11.470;2023-01-08T04:35:35;11.37;;;7.87;;
44750;SDS011;30477;48.224;11.470;2023-01-08T04:38:00;11.40;;;7.57;;
44750;SDS011;30477;48.224;11.470;2023-01-08T04:40:25;11.97;;;8.37;;
44750;SDS011;30477;48.224;11.470;2023-01-08T04:42:51;13.53;;;9.33;;
44750;SDS011;30477;48.224;11.470;2023-01-08T04:45:16;15.10;;;10.73;;
44750;SDS011;30477;48.224;11.470;2023-01-08T04:47:42;19.67;;;12.60;;
44750;SDS011;30477;48.224;11.470;2023-01-08T04:50:07;13.47;;;9.33;;
44750;SDS011;30477;48.224;11.470;2023-01-08T04:52:33;17.50;;;10.70;;
44750;SDS011;30477;48.224;11.470;2023-01-08T04:54:58;20.17;;;11.20;;
44750;SDS011;30477;48.224;11.470;2023-01-08T04:57:24;22.53;;;12.17;;
44750;SDS011;30477;48.224;11.470;2023-01-08T04:59:49;35.77;;;13.67;;
44750;SDS011;30477;48.224;11.470;2023-01-08T05:02:14;27.57;;;12.57;;
44750;SDS011;30477;48.224;11.470;2023-01-08T05:04:40;11.67;;;8.03;;
44750;SDS011;30477;48.224;11.470;2023-01-08T05:07:05;13.87;;;8.87;;
44750;SDS011;30477;48.224;11.470;2023-01-08T05:09:32;14.27;;;9.13;;
44750;SDS011;30477;48.224;11.470;2023-01-08T05:11:57;13.27;;;8.18;;
44750;SDS011;30477;48.224;11.470;2023-01-08T05:14:23;17.47;;;9.73;;
44750;SDS011;30477;48.224;11.470;2023-01-08T05:16:48;10.73;;;7.70;;
44750;SDS011;30477;48.224;11.470;2023-01-08T05:19:13;11.67;;;7.80;;
44750;SDS011;30477;48.224;11.470;2023-01-08T05:21:39;10.23;;;7.30;;
44750;SDS011;30477;48.224;11.470;2023-01-08T05:24:04;10.30;;;7.03;;
44750;SDS011;30477;48.224;11.470;2023-01-08T05:26:30;11.35;;;7.25;;
44750;SDS011;30477;48.224;11.470;2023-01-08T05:28:56;11.40;;;7.45;;
44750;SDS011;30477;48.224;11.470;2023-01-08T05:31:22;14.85;;;9.30;;
44750;SDS011;30477;48.224;11.470;2023-01-08T05:33:47;17.43;;;9.40;;
44750;SDS011;30477;48.224;11.470;2023-01-08T05:36:12;12.73;;;8.30;;
44750;SDS011;30477;48.224;11.470;2023-01-08T05:38:38;19.10;;;8.98;;
44750;SDS011;30477;48.224;11.470;2023-01-08T05:41:04;18.40;;;8.33;;
44750;SDS011;30477;48.224;11.470;2023-01-08T05:43:30;12.13;;;7.65;;
44750;SDS011;30477;48.224;11.470;2023-01-08T05:45:59;10.37;;;7.00;;
44750;SDS011;30477;48.224;11.470;2023-01-08T05:48:25;10.77;;;6.72;;
44750;SDS011;30477;48.224;11.470;2023-01-08T05:50:52;9.82;;;6.47;;
44750;SDS011;30477;48.224;11.470;2023-01-08T05:53:17;10.47;;;6.20;;
44750;SDS011;30477;48.224;11.470;2023-01-08T05:55:43;9.32;;;6.45;;
44750;SDS011;30477;48.224;11.470;2023-01-08T05:58:08;8.83;;;6.30;;
44750;SDS011;30477;48.224;11.470;2023-01-08T06:00:35;9.98;;;6.07;;
44750;SDS011;30477;48.224;11.470;2023-01-08T06:03:00;9.27;;;6.07;;
44750;SDS011;30477;48.224;11.470;2023-01-08T06:05:26;8.70;;;6.60;;
44750;SDS011;30477;48.224;11.470;2023-01-08T06:07:51;8.37;;;6.30;;
44750;SDS011;30477;48.224;11.470;2023-01-08T06:10:17;9.17;;;6.03;;
44750;SDS011;30477;48.224;11.470;2023-01-08T06:12:42;8.63;;;5.97;;
44750;SDS011;30477;48.224;11.470;2023-01-08T06:15:08;10.83;;;6.67;;
44750;SDS011;30477;48.224;11.470;2023-01-08T06:17:34;9.57;;;6.70;;
44750;SDS011;30477;48.224;11.470;2023-01-08T06:20:00;8.77;;;6.03;;
44750;SDS011;30477;48.224;11.470;2023-01-08T06:22:25;9.40;;;6.10;;
44750;SDS011;30477;48.224;11.470;2023-01-08T06:24:51;8.45;;;6.13;;
44750;SDS011;30477;48.224;11.470;2023-01-08T06:27:17;9.35;;;6.25;;
44750;SDS011;30477;48.224;11.470;2023-01-08T06:29:42;9.77;;;6.37;;
44750;SDS011;30477;48.224;11.470;2023-01-08T06:32:08;9.02;;;6.43;;
44750;SDS011;30477;48.224;11.470;2023-01-08T06:34:33;9.23;;;6.00;;
44750;SDS011;30477;48.224;11.470;2023-01-08T06:36:59;9.40;;;6.07;;
44750;SDS011;30477;48.224;11.470;2023-01-08T06:39:24;9.63;;;6.00;;
44750;SDS011;30477;48.224;11.470;2023-01-08T06:41:49;9.60;;;6.73;;
44750;SDS011;30477;48.224;11.470;2023-01-08T06:44:15;12.00;;;6.57;;
44750;SDS011;30477;48.224;11.470;2023-01-08T06:46:40;10.93;;;6.10;;
44750;SDS011;30477;48.224;11.470;2023-01-08T06:49:05;10.80;;;6.80;;
44750;SDS011;30477;48.224;11.470;2023-01-08T06:51:31;13.20;;;7.75;;
44750;SDS011;30477;48.224;11.470;2023-01-08T06:53:56;19.03;;;8.53;;
44750;SDS011;30477;48.224;11.470;2023-01-08T06:56:22;12.77;;;7.80;;
44750;SDS011;30477;48.224;11.470;2023-01-08T06:58:47;12.40;;;7.37;;
44750;SDS011;30477;48.224;11.470;2023-01-08T07:01:13;14.77;;;9.67;;
44750;SDS011;30477;48.224;11.470;2023-01-08T07:03:40;13.98;;;8.65;;
44750;SDS011;30477;48.224;11.470;2023-01-08T07:06:05;13.23;;;9.35;;
44750;SDS011;30477;48.224;11.470;2023-01-08T07:08:31;14.55;;;9.63;;
44750;SDS011;30477;48.224;11.470;2023-01-08T07:11:00;13.17;;;9.17;;
44750;SDS011;30477;48.224;11.470;2023-01-08T07:13:26;12.55;;;7.97;;
44750;SDS011;30477;48.224;11.470;2023-01-08T07:15:52;14.70;;;8.47;;
44750;SDS011;30477;48.224;11.470;2023-01-08T07:18:17;15.87;;;9.50;;
44750;SDS011;30477;48.224;11.470;2023-01-08T07:20:43;14.50;;;8.83;;
44750;SDS011;30477;48.224;11.470;2023-01-08T07:23:08;15.50;;;7.97;;
44750;SDS011;30477;48.224;11.470;2023-01-08T07:25:35;14.38;;;7.93;;
44750;SDS011;30477;48.224;11.470;2023-01-08T07:28:00;10.53;;;6.77;;
44750;SDS011;30477;48.224;11.470;2023-01-08T07:30:26;13.50;;;7.20;;
44750;SDS011;30477;48.224;11.470;2023-01-08T07:32:52;11.00;;;6.80;;
44750;SDS011;30477;48.224;11.470;2023-01-08T07:35:17;9.60;;;6.43;;
44750;SDS011;30477;48.224;11.470;2023-01-08T07:37:43;14.30;;;7.50;;
44750;SDS011;30477;48.224;11.470;2023-01-08T07:40:09;9.77;;;6.38;;
44750;SDS011;30477;48.224;11.470;2023-01-08T07:42:35;12.48;;;7.07;;
44750;SDS011;30477;48.224;11.470;2023-01-08T07:45:01;9.53;;;6.00;;
44750;SDS011;30477;48.224;11.470;2023-01-08T07:47:26;9.10;;;6.20;;
44750;SDS011;30477;48.224;11.470;2023-01-08T07:49:52;8.57;;;6.07;;
44750;SDS011;30477;48.224;11.470;2023-01-08T07:52:17;9.13;;;6.10;;
44750;SDS011;30477;48.224;11.470;2023-01-08T07:54:43;10.17;;;6.70;;
44750;SDS011;30477;48.224;11.470;2023-01-08T07:57:08;10.77;;;6.90;;
44750;SDS011;30477;48.224;11.470;2023-01-08T07:59:33;11.30;;;6.97;;
44750;SDS011;30477;48.224;11.470;2023-01-08T08:01:59;10.87;;;8.70;;
44750;SDS011;30477;48.224;11.470;2023-01-08T08:04:24;11.23;;;7.47;;
44750;SDS011;30477;48.224;11.470;2023-01-08T08:06:50;8.67;;;6.23;;
44750;SDS011;30477;48.224;11.470;2023-01-08T08:09:15;8.37;;;6.00;;
44750;SDS011;30477;48.224;11.470;2023-01-08T08:11:41;11.37;;;6.73;;
44750;SDS011;30477;48.224;11.470;2023-01-08T08:14:06;12.93;;;7.70;;
44750;SDS011;30477;48.224;11.470;2023-01-08T08:16:32;12.97;;;7.63;;
44750;SDS011;30477;48.224;11.470;2023-01-08T08:18:58;10.97;;;7.50;;
44750;SDS011;30477;48.224;11.470;2023-01-08T08:21:24;10.75;;;7.53;;
44750;SDS011;30477;48.224;11.470;2023-01-08T08:23:49;25.45;;;12.05;;
44750;SDS011;30477;48.224;11.470;2023-01-08T08:26:15;17.00;;;9.47;;
44750;SDS011;30477;48.224;11.470;2023-01-08T08:28:40;10.83;;;7.63;;
44750;SDS011;30477;48.224;11.470;2023-01-08T08:31:06;20.40;;;10.03;;
44750;SDS011;30477;48.224;11.470;2023-01-08T08:33:31;13.73;;;7.80;;
44750;SDS011;30477;48.224;11.470;2023-01-08T08:35:56;13.93;;;8.10;;
44750;SDS011;30477;48.224;11.470;2023-01-08T08:38:22;14.07;;;8.07;;
44750;SDS011;30477;48.224;11.470;2023-01-08T08:40:48;9.45;;;6.75;;
44750;SDS011;30477;48.224;11.470;2023-01-08T08:43:14;11.07;;;7.00;;
44750;SDS011;30477;48.224;11.470;2023-01-08T08:45:39;14.57;;;8.60;;
44750;SDS011;30477;48.224;11.470;2023-01-08T08:48:05;12.83;;;7.10;;
44750;SDS011;30477;48.224;11.470;2023-01-08T08:50:31;20.25;;;9.20;;
44750;SDS011;30477;48.224;11.470;2023-01-08T08:53:00;11.67;;;7.90;;
44750;SDS011;30477;48.224;11.470;2023-01-08T08:55:26;11.85;;;7.35;;
44750;SDS011;30477;48.224;11.470;2023-01-08T09:00:18;11.13;;;7.63;;
44750;SDS011;30477;48.224;11.470;2023-01-08T09:02:43;12.27;;;8.13;;
44750;SDS011;30477;48.224;11.470;2023-01-08T09:05:09;12.37;;;7.07;;
44750;SDS011;30477;48.224;11.470;2023-01-08T09:07:34;14.23;;;7.65;;
44750;SDS011;30477;48.224;11.470;2023-01-08T09:10:00;10.17;;;6.57;;
44750;SDS011;30477;48.224;11.470;2023-01-08T09:12:25;8.47;;;5.97;;
44750;SDS011;30477;48.224;11.470;2023-01-08T09:14:51;10.53;;;6.37;;
44750;SDS011;30477;48.224;11.470;2023-01-08T09:17:18;6.82;;;5.07;;
44750;SDS011;30477;48.224;11.470;2023-01-08T09:19:45;9.25;;;5.57;;
44750;SDS011;30477;48.224;11.470;2023-01-08T09:22:11;6.88;;;5.15;;
44750;SDS011;30477;48.224;11.470;2023-01-08T09:24:36;7.73;;;5.17;;
44750;SDS011;30477;48.224;11.470;2023-01-08T09:27:01;9.90;;;4.90;;
44750;SDS011;30477;48.224;11.470;2023-01-08T09:29:27;11.80;;;6.13;;
44750;SDS011;30477;48.224;11.470;2023-01-08T09:31:52;8.37;;;5.50;;
44750;SDS011;30477;48.224;11.470;2023-01-08T09:34:18;12.23;;;6.37;;
44750;SDS011;30477;48.224;11.470;2023-01-08T09:36:43;11.70;;;6.27;;
44750;SDS011;30477;48.224;11.470;2023-01-08T09:39:09;12.33;;;6.70;;
44750;SDS011;30477;48.224;11.470;2023-01-08T09:41:35;15.67;;;7.07;;
44750;SDS011;30477;48.224;11.470;2023-01-08T09:44:09;17.27;;;7.07;;
44750;SDS011;30477;48.224;11.470;2023-01-08T09:46:40;16.25;;;7.03;;
44750;SDS011;30477;48.224;11.470;2023-01-08T09:49:06;14.45;;;7.85;;
44750;SDS011;30477;48.224;11.470;2023-01-08T09:51:37;17.40;;;7.60;;
44750;SDS011;30477;48.224;11.470;2023-01-08T09:54:03;11.88;;;6.40;;
44750;SDS011;30477;48.224;11.470;2023-01-08T09:56:32;8.82;;;6.10;;
44750;SDS011;30477;48.224;11.470;2023-01-08T09:59:00;10.90;;;6.50;;
44750;SDS011;30477;48.224;11.470;2023-01-08T10:01:28;12.85;;;6.13;;
44750;SDS011;30477;48.224;11.470;2023-01-08T10:04:02;10.32;;;6.97;;
44750;SDS011;30477;48.224;11.470;2023-01-08T10:06:28;7.93;;;6.20;;
44750;SDS011;30477;48.224;11.470;2023-01-08T10:08:55;11.00;;;6.38;;
44750;SDS011;30477;48.224;11.470;2023-01-08T10:11:20;11.00;;;6.13;;
44750;SDS011;30477;48.224;11.470;2023-01-08T10:13:53;10.13;;;6.13;;
44750;SDS011;30477;48.224;11.470;2023-01-08T10:16:25;8.70;;;6.00;;
44750;SDS011;30477;48.224;11.470;2023-01-08T10:18:54;10.07;;;6.15;;
44750;SDS011;30477;48.224;11.470;2023-01-08T10:21:20;9.13;;;5.97;;
44750;SDS011;30477;48.224;11.470;2023-01-08T10:23:53;8.95;;;6.18;;
44750;SDS011;30477;48.224;11.470;2023-01-08T10:26:52;10.03;;;6.37;;
44750;SDS011;30477;48.224;11.470;2023-01-08T10:29:15;10.32;;;6.53;;
44750;SDS011;30477;48.224;11.470;2023-01-08T10:34:11;32.10;;;18.05;;
44750;SDS011;30477;48.224;11.470;2023-01-08T10:36:47;17.98;;;10.93;;
44750;SDS011;30477;48.224;11.470;2023-01-08T10:39:17;16.33;;;8.30;;
44750;SDS011;30477;48.224;11.470;2023-01-08T10:41:48;8.70;;;6.45;;
44750;SDS011;30477;48.224;11.470;2023-01-08T10:44:17;11.25;;;6.78;;
44750;SDS011;30477;48.224;11.470;2023-01-08T10:46:45;7.30;;;5.60;;
44750;SDS011;30477;48.224;11.470;2023-01-08T10:49:33;7.72;;;5.20;;
44750;SDS011;30477;48.224;11.470;2023-01-08T10:52:03;8.57;;;4.60;;
44750;SDS011;30477;48.224;11.470;2023-01-08T10:54:33;6.70;;;4.68;;
44750;SDS011;30477;48.224;11.470;2023-01-08T10:57:01;6.18;;;4.38;;
44750;SDS011;30477;48.224;11.470;2023-01-08T10:59:27;7.45;;;4.40;;
44750;SDS011;30477;48.224;11.470;2023-01-08T11:01:53;7.93;;;5.53;;
44750;SDS011;30477;48.224;11.470;2023-01-08T11:04:22;10.20;;;5.32;;
44750;SDS011;30477;48.224;11.470;2023-01-08T11:07:02;9.18;;;5.70;;
44750;SDS011;30477;48.224;11.470;2023-01-08T11:09:37;7.10;;;4.85;;
44750;SDS011;30477;48.224;11.470;2023-01-08T11:15:27;8.07;;;5.05;;
44750;SDS011;30477;48.224;11.470;2023-01-08T11:18:20;4.55;;;3.55;;
44750;SDS011;30477;48.224;11.470;2023-01-08T11:20:49;5.35;;;3.50;;
44750;SDS011;30477;48.224;11.470;2023-01-08T11:29:14;5.40;;;3.30;;
44750;SDS011;30477;48.224;11.470;2023-01-08T11:31:33;4.68;;;3.45;;
44750;SDS011;30477;48.224;11.470;2023-01-08T11:34:21;3.88;;;3.30;;
44750;SDS011;30477;48.224;11.470;2023-01-08T11:36:58;3.47;;;2.60;;
44750;SDS011;30477;48.224;11.470;2023-01-08T11:39:31;4.18;;;3.00;;
44750;SDS011;30477;48.224;11.470;2023-01-08T11:42:06;4.68;;;2.60;;
44750;SDS011;30477;48.224;11.470;2023-01-08T11:50:13;4.05;;;2.90;;
44750;SDS011;30477;48.224;11.470;2023-01-08T11:53:09;5.43;;;3.03;;
44750;SDS011;30477;48.224;11.470;2023-01-08T11:58:37;5.20;;;3.50;;
44750;SDS011;30477;48.224;11.470;2023-01-08T12:01:36;6.05;;;3.20;;
44750;SDS011;30477;48.224;11.470;2023-01-08T12:06:50;5.07;;;2.80;;
44750;SDS011;30477;48.224;11.470;2023-01-08T12:12:25;5.20;;;3.75;;
44750;SDS011;30477;48.224;11.470;2023-01-08T12:20:53;7.90;;;4.80;;
44750;SDS011;30477;48.224;11.470;2023-01-08T12:34:18;7.05;;;4.07;;
44750;SDS011;30477;48.224;11.470;2023-01-08T12:37:01;6.13;;;3.78;;
44750;SDS011;30477;48.224;11.470;2023-01-08T12:39:32;6.68;;;3.38;;
44750;SDS011;30477;48.224;11.470;2023-01-08T12:42:10;6.20;;;3.30;;
44750;SDS011;30477;48.224;11.470;2023-01-08T12:44:38;4.10;;;3.00;;
44750;SDS011;30477;48.224;11.470;2023-01-08T12:47:04;4.13;;;2.83;;
44750;SDS011;30477;48.224;11.470;2023-01-08T12:49:39;5.10;;;3.17;;
44750;SDS011;30477;48.224;11.470;2023-01-08T12:52:18;4.35;;;3.17;;
44750;SDS011;30477;48.224;11.470;2023-01-08T12:54:59;5.25;;;3.40;;
44750;SDS011;30477;48.224;11.470;2023-01-08T12:57:47;3.50;;;2.95;;
44750;SDS011;30477;48.224;11.470;2023-01-08T13:00:38;7.95;;;3.88;;
44750;SDS011;30477;48.224;11.470;2023-01-08T13:03:11;4.75;;;3.38;;
44750;SDS011;30477;48.224;11.470;2023-01-08T13:05:39;4.20;;;3.00;;
44750;SDS011;30477;48.224;11.470;2023-01-08T13:10:58;5.28;;;3.10;;
44750;SDS011;30477;48.224;11.470;2023-01-08T13:16:05;4.55;;;3.33;;
44750;SDS011;30477;48.224;11.470;2023-01-08T13:18:30;5.70;;;4.32;;
44750;SDS011;30477;48.224;11.470;2023-01-08T13:20:56;7.17;;;3.93;;
44750;SDS011;30477;48.224;11.470;2023-01-08T13:23:24;6.40;;;3.60;;
44750;SDS011;30477;48.224;11.470;2023-01-08T13:25:56;5.95;;;3.83;;
44750;SDS011;30477;48.224;11.470;2023-01-08T13:33:49;4.30;;;3.65;;
44750;SDS011;30477;48.224;11.470;2023-01-08T13:36:20;4.22;;;3.30;;
44750;SDS011;30477;48.224;11.470;2023-01-08T13:41:54;4.97;;;3.63;;
44750;SDS011;30477;48.224;11.470;2023-01-08T13:47:01;5.85;;;3.50;;
44750;SDS011;30477;48.224;11.470;2023-01-08T13:49:33;7.28;;;4.38;;
44750;SDS011;30477;48.224;11.470;2023-01-08T13:55:00;11.85;;;7.20;;
44750;SDS011;30477;48.224;11.470;2023-01-08T13:57:30;10.43;;;6.25;;
44750;SDS011;30477;48.224;11.470;2023-01-08T14:00:02;10.75;;;6.32;;
44750;SDS011;30477;48.224;11.470;2023-01-08T14:02:31;9.63;;;6.40;;
44750;SDS011;30477;48.224;11.470;2023-01-08T14:05:11;9.70;;;5.82;;
44750;SDS011;30477;48.224;11.470;2023-01-08T14:07:43;8.13;;;5.63;;
44750;SDS011;30477;48.224;11.470;2023-01-08T14:10:10;10.20;;;5.77;;
44750;SDS011;30477;48.224;11.470;2023-01-08T14:12:37;6.95;;;5.32;;
44750;SDS011;30477;48.224;11.470;2023-01-08T14:15:03;9.93;;;5.88;;
44750;SDS011;30477;48.224;11.470;2023-01-08T14:17:35;8.48;;;6.13;;
44750;SDS011;30477;48.224;11.470;2023-01-08T14:20:01;11.05;;;7.05;;
44750;SDS011;30477;48.224;11.470;2023-01-08T14:22:32;9.43;;;6.75;;
44750;SDS011;30477;48.224;11.470;2023-01-08T14:25:00;10.18;;;5.85;;
44750;SDS011;30477;48.224;11.470;2023-01-08T14:27:30;10.05;;;6.70;;
44750;SDS011;30477;48.224;11.470;2023-01-08T14:29:56;18.23;;;9.90;;
44750;SDS011;30477;48.224;11.470;2023-01-08T14:32:23;11.88;;;6.90;;
44750;SDS011;30477;48.224;11.470;2023-01-08T14:34:56;11.88;;;6.50;;
44750;SDS011;30477;48.224;11.470;2023-01-08T14:37:24;10.82;;;6.03;;
44750;SDS011;30477;48.224;11.470;2023-01-08T14:39:49;10.03;;;6.13;;
44750;SDS011;30477;48.224;11.470;2023-01-08T14:45:15;11.90;;;6.68;;
44750;SDS011;30477;48.224;11.470;2023-01-08T14:47:48;8.77;;;5.93;;
44750;SDS011;30477;48.224;11.470;2023-01-08T14:50:22;10.55;;;7.47;;
44750;SDS011;30477;48.224;11.470;2023-01-08T14:52:50;10.52;;;7.40;;
44750;SDS011;30477;48.224;11.470;2023-01-08T14:55:18;9.50;;;7.72;;
44750;SDS011;30477;48.224;11.470;2023-01-08T14:57:50;9.32;;;6.93;;
44750;SDS011;30477;48.224;11.470;2023-01-08T15:00:18;9.20;;;6.47;;
44750;SDS011;30477;48.224;11.470;2023-01-08T15:02:48;10.52;;;7.80;;
44750;SDS011;30477;48.224;11.470;2023-01-08T15:05:16;10.38;;;7.38;;
44750;SDS011;30477;48.224;11.470;2023-01-08T15:07:42;11.55;;;8.45;;
44750;SDS011;30477;48.224;11.470;2023-01-08T15:10:22;8.00;;;5.90;;
44750;SDS011;30477;48.224;11.470;2023-01-08T15:12:58;8.13;;;6.60;;
44750;SDS011;30477;48.224;11.470;2023-01-08T15:15:25;10.75;;;6.80;;
44750;SDS011;30477;48.224;11.470;2023-01-08T15:17:50;10.60;;;8.05;;
44750;SDS011;30477;48.224;11.470;2023-01-08T15:20:17;10.48;;;7.95;;
44750;SDS011;30477;48.224;11.470;2023-01-08T15:22:45;10.98;;;7.90;;
44750;SDS011;30477;48.224;11.470;2023-01-08T15:25:19;16.87;;;9.70;;
44750;SDS011;30477;48.224;11.470;2023-01-08T15:27:53;14.13;;;9.80;;
44750;SDS011;30477;48.224;11.470;2023-01-08T15:30:25;10.65;;;8.45;;
44750;SDS011;30477;48.224;11.470;2023-01-08T15:33:04;13.68;;;9.63;;
44750;SDS011;30477;48.224;11.470;2023-01-08T15:35:31;14.27;;;10.30;;
44750;SDS011;30477;48.224;11.470;2023-01-08T15:37:57;15.57;;;11.25;;
44750;SDS011;30477;48.224;11.470;2023-01-08T15:40:22;21.80;;;13.00;;
44750;SDS011;30477;48.224;11.470;2023-01-08T15:42:47;40.97;;;21.40;;
44750;SDS011;30477;48.224;11.470;2023-01-08T15:45:31;68.63;;;33.83;;
44750;SDS011;30477;48.224;11.470;2023-01-08T15:47:57;53.83;;;27.23;;
44750;SDS011;30477;48.224;11.470;2023-01-08T15:50:23;32.43;;;19.23;;
44750;SDS011;30477;48.224;11.470;2023-01-08T15:52:50;22.67;;;15.20;;
44750;SDS011;30477;48.224;11.470;2023-01-08T15:55:16;23.60;;;15.90;;
44750;SDS011;30477;48.224;11.470;2023-01-08T15:57:46;14.10;;;11.38;;
44750;SDS011;30477;48.224;11.470;2023-01-08T16:00:12;14.27;;;10.40;;
44750;SDS011;30477;48.224;11.470;2023-01-08T16:02:41;16.85;;;11.35;;
44750;SDS011;30477;48.224;11.470;2023-01-08T16:05:08;14.85;;;9.65;;
44750;SDS011;30477;48.224;11.470;2023-01-08T16:07:33;13.23;;;9.90;;
44750;SDS011;30477;48.224;11.470;2023-01-08T16:09:59;9.93;;;7.00;;
44750;SDS011;30477;48.224;11.470;2023-01-08T16:12:24;9.83;;;7.10;;
44750;SDS011;30477;48.224;11.470;2023-01-08T16:14:50;10.70;;;6.97;;
44750;SDS011;30477;48.224;11.470;2023-01-08T16:17:15;12.40;;;7.20;;